createdAt,value
2023-05-07T00:09:53.133Z,0.87
2023-05-07T00:19:53.124Z,0.87
2023-05-07T00:29:53.173Z,0.58
2023-05-07T00:39:53.117Z,1.64
2023-05-07T00:49:53.224Z,1.26
2023-05-07T00:59:53.264Z,0.39
2023-05-07T01:09:53.260Z,0.77
2023-05-07T01:19:54.104Z,0.48
2023-05-07T01:29:54.820Z,0.29
2023-05-07T01:39:55.353Z,0.48
2023-05-07T01:49:55.383Z,0.58
2023-05-07T01:59:55.491Z,0.48
2023-05-07T02:09:56.715Z,0.39
2023-05-07T02:19:57.558Z,0.39
2023-05-07T02:29:57.617Z,0.97
2023-05-07T02:39:57.492Z,0.29
2023-05-07T02:49:57.453Z,0.58
2023-05-07T02:59:57.546Z,1.54
2023-05-07T03:09:57.584Z,0.87
2023-05-07T03:19:57.772Z,0.58
2023-05-07T03:29:58.435Z,1.25
2023-05-07T03:39:58.622Z,1.15
2023-05-07T03:49:58.680Z,1.82
2023-05-07T03:59:58.666Z,1.44
2023-05-07T04:09:58.609Z,0.48
2023-05-07T04:19:59.827Z,0.86
2023-05-07T04:30:01.927Z,0.86
2023-05-07T04:40:04.294Z,1.44
2023-05-07T04:50:04.686Z,0.58
2023-05-07T05:00:06.444Z,0.96
2023-05-07T05:10:07.649Z,0.58
2023-05-07T05:20:08.612Z,1.55
2023-05-07T05:30:09.307Z,0.29
2023-05-07T05:40:10.514Z,0.88
2023-05-07T05:50:11.015Z,1.07
2023-05-07T06:00:13.776Z,0.49
2023-05-07T06:10:14.977Z,1.18
2023-05-07T06:20:15.821Z,0.98
2023-05-07T06:30:15.837Z,0.10
2023-05-07T06:40:16.433Z,0.30
2023-05-07T06:50:18.255Z,0.40
2023-05-07T07:00:20.534Z,0.30
2023-05-07T07:10:21.583Z,0.70
2023-05-07T07:20:21.934Z,1.00
2023-05-07T07:30:22.784Z,0.90
2023-05-07T07:40:23.218Z,0.90
2023-05-07T07:50:36.078Z,0.60
2023-05-07T08:00:27.135Z,0.80
2023-05-07T08:10:29.664Z,0.50
2023-05-07T08:20:31.149Z,0.50
2023-05-07T08:30:31.901Z,1.20
2023-05-07T08:40:32.108Z,1.00
2023-05-07T08:50:32.485Z,0.20
2023-05-07T09:00:33.289Z,0.40
2023-05-07T09:10:34.693Z,1.40
2023-05-07T09:20:35.490Z,0.20
2023-05-07T09:30:36.979Z,0.60
2023-05-07T09:40:38.778Z,0.30
2023-05-07T09:50:39.102Z,0.30
2023-05-07T10:00:40.876Z,0.60
2023-05-07T10:10:55.765Z,0.40
2023-05-07T10:20:56.932Z,0.40
2023-05-07T10:30:57.927Z,0.30
2023-05-07T10:40:58.276Z,0.10
2023-05-07T10:50:58.192Z,0.90
2023-05-07T11:00:59.992Z,0.80
2023-05-07T11:11:02.386Z,0.20
2023-05-07T11:21:06.899Z,0.20
2023-05-07T11:31:07.362Z,0.40
2023-05-07T11:41:07.143Z,0.40
2023-05-07T11:51:07.226Z,0.20
2023-05-07T12:01:07.159Z,0.10
2023-05-07T12:11:07.137Z,0.60
2023-05-07T12:21:07.670Z,0.40
2023-05-07T12:31:08.523Z,0.40
2023-05-07T12:41:09.172Z,0.40
2023-05-07T12:51:11.216Z,0.40
2023-05-07T13:01:13.177Z,0.30
2023-05-07T13:11:13.282Z,0.60
2023-05-07T13:21:14.324Z,0.90
2023-05-07T13:31:14.346Z,0.30
2023-05-07T13:41:14.913Z,1.00
2023-05-07T13:51:15.903Z,1.30
2023-05-07T14:01:16.422Z,0.80
2023-05-07T14:11:16.649Z,1.10
2023-05-07T14:21:16.439Z,2.19
2023-05-07T14:31:19.524Z,3.37
2023-05-07T14:41:19.752Z,2.97
2023-05-07T14:51:20.427Z,10.67
2023-05-07T15:01:20.551Z,4.01
2023-05-07T15:11:20.481Z,4.00
2023-05-07T15:21:20.463Z,4.16
2023-05-07T15:31:21.244Z,2.40
2023-05-07T15:41:21.552Z,2.86
2023-05-07T15:51:21.694Z,4.38
2023-05-07T16:01:22.105Z,2.09
2023-05-07T16:11:23.509Z,1.33
2023-05-07T16:21:23.560Z,1.71
2023-05-07T16:31:23.821Z,1.63
2023-05-07T16:41:26.545Z,1.53
2023-05-07T16:51:27.531Z,1.34
2023-05-07T17:01:29.515Z,1.92
2023-05-07T17:11:31.201Z,1.54
2023-05-07T17:21:31.809Z,2.30
2023-05-07T17:31:31.618Z,1.53
2023-05-07T17:41:31.591Z,1.24
2023-05-07T17:51:36.267Z,2.29
2023-05-07T18:01:34.008Z,2.10
2023-05-07T18:11:34.673Z,4.09
2023-05-07T18:21:34.681Z,3.52
2023-05-07T18:31:37.462Z,3.04
2023-05-07T18:41:36.742Z,3.41
2023-05-07T18:51:36.898Z,2.65
2023-05-07T19:01:36.828Z,3.31
2023-05-07T19:11:39.190Z,3.30
2023-05-07T19:21:39.766Z,3.49
2023-05-07T19:31:39.885Z,4.05
2023-05-07T19:41:41.309Z,3.48
2023-05-07T19:51:44.837Z,1.79
2023-05-07T20:01:45.020Z,3.46
2023-05-07T20:11:45.135Z,3.45
2023-05-07T20:21:44.942Z,3.45
2023-05-07T20:31:45.103Z,3.45
2023-05-07T20:41:44.865Z,6.25
2023-05-07T20:51:45.090Z,2.98
2023-05-07T21:01:45.169Z,5.01
2023-05-07T21:11:45.942Z,4.71
2023-05-07T21:21:45.910Z,6.73
2023-05-07T21:31:45.941Z,3.77
2023-05-07T21:41:45.988Z,6.98
2023-05-07T21:51:45.940Z,6.51
2023-05-07T22:01:46.064Z,7.06
2023-05-07T22:11:45.985Z,5.22
2023-05-07T22:21:46.032Z,6.13
2023-05-07T22:31:46.073Z,6.12
2023-05-07T22:41:46.415Z,5.84
2023-05-07T22:51:47.078Z,3.83
2023-05-07T23:01:48.154Z,5.37
2023-05-07T23:11:48.069Z,5.64
2023-05-07T23:21:48.680Z,4.09
2023-05-07T23:31:49.179Z,6.45
2023-05-07T23:41:49.106Z,8.53
2023-05-07T23:51:49.175Z,4.44
